Time;durP1;ratioP1;P1;durP2;ratioP2;P2;SDS_P1;SDS_P2;PMS_P1;PMS_P2;Temp;Humidity;BMP_temperature;BMP_pressure;BME280_temperature;BME280_humidity;BME280_pressure;Samples;Min_cycle;Max_cycle;Signal;HPM_P1;HPM_P2
2023/03/10 00:01:46;;;;;;;31.65;6.85;;;;;;;;;;4950757;28;20415;-57
2023/03/10 00:04:13;;;;;;;60.30;8.50;;;;;;;;;;4949712;28;20048;-54
2023/03/10 00:06:40;;;;;;;36.05;6.70;;;;;;;;;;4950777;29;20047;-53
2023/03/10 00:09:07;;;;;;;39.75;8.02;;;;;;;;;;4950423;28;20118;-56
2023/03/10 00:11:33;;;;;;;51.70;8.18;;;;;;;;;;4950312;29;20463;-53
2023/03/10 00:14:00;;;;;;;66.63;9.18;;;;;;;;;;4951231;28;20138;-52
2023/03/10 00:16:28;;;;;;;33.53;7.18;;;;;;;;;;4950169;29;20044;-53
2023/03/10 00:18:54;;;;;;;40.08;7.70;;;;;;;;;;4950453;29;20415;-54
2023/03/10 00:21:23;;;;;;;26.90;6.28;;;;;;;;;;4950700;28;20038;-53
2023/03/10 00:23:49;;;;;;;40.33;7.47;;;;;;;;;;4949701;28;20039;-56
2023/03/10 00:26:17;;;;;;;38.40;7.22;;;;;;;;;;4954960;28;20047;-58
2023/03/10 00:28:43;;;;;;;25.10;5.93;;;;;;;;;;4952660;29;20057;-58
2023/03/10 00:31:11;;;;;;;28.75;6.40;;;;;;;;;;4962881;28;20039;-54
2023/03/10 00:33:38;;;;;;;34.00;6.65;;;;;;;;;;4949477;29;20054;-53
2023/03/10 00:36:10;;;;;;;69.78;9.98;;;;;;;;;;4952704;28;20055;-54
2023/03/10 00:38:37;;;;;;;70.68;10.50;;;;;;;;;;4954301;29;20125;-54
2023/03/10 00:41:05;;;;;;;54.13;9.52;;;;;;;;;;4953453;29;20050;-56
2023/03/10 00:43:32;;;;;;;30.83;8.38;;;;;;;;;;4953115;28;20059;-54
2023/03/10 00:45:59;;;;;;;61.50;10.05;;;;;;;;;;4953564;28;20040;-56
2023/03/10 00:48:26;;;;;;;54.22;10.23;;;;;;;;;;4954347;28;20055;-58
2023/03/10 00:50:53;;;;;;;35.80;8.18;;;;;;;;;;4953080;28;20759;-56
2023/03/10 00:53:19;;;;;;;39.45;9.32;;;;;;;;;;4953499;28;20043;-57
2023/03/10 00:55:56;;;;;;;77.78;12.32;;;;;;;;;;4948833;28;20516;-46
2023/03/10 00:58:22;;;;;;;44.53;9.10;;;;;;;;;;4951753;29;20054;-48
2023/03/10 01:00:49;;;;;;;32.92;7.50;;;;;;;;;;4953929;28;20039;-45
2023/03/10 01:03:16;;;;;;;59.40;9.45;;;;;;;;;;4952920;29;20493;-46
2023/03/10 01:05:44;;;;;;;54.42;8.73;;;;;;;;;;4953752;28;20098;-46
2023/03/10 01:08:10;;;;;;;59.22;8.57;;;;;;;;;;4954235;28;20150;-48
2023/03/10 01:10:37;;;;;;;84.60;11.27;;;;;;;;;;4967617;28;20058;-45
2023/03/10 01:13:03;;;;;;;42.20;9.00;;;;;;;;;;4953402;28;20035;-46
2023/03/10 01:15:30;;;;;;;65.63;10.02;;;;;;;;;;4952838;29;20489;-47
2023/03/10 01:17:56;;;;;;;85.75;11.18;;;;;;;;;;4952745;28;20040;-47
2023/03/10 01:20:23;;;;;;;33.42;7.78;;;;;;;;;;4952285;29;20519;-48
2023/03/10 01:22:49;;;;;;;28.98;6.82;;;;;;;;;;4953249;29;20046;-47
2023/03/10 01:25:16;;;;;;;47.05;8.38;;;;;;;;;;4952325;28;20047;-47
2023/03/10 01:27:42;;;;;;;35.47;7.18;;;;;;;;;;4953090;28;20495;-46
2023/03/10 01:30:09;;;;;;;70.57;9.00;;;;;;;;;;4952538;28;20428;-47
2023/03/10 01:32:37;;;;;;;79.75;10.60;;;;;;;;;;4951276;28;20044;-47
2023/03/10 01:35:04;;;;;;;35.60;7.50;;;;;;;;;;4953834;28;20047;-47
2023/03/10 01:37:30;;;;;;;33.78;7.57;;;;;;;;;;4951766;28;20054;-47
2023/03/10 01:39:57;;;;;;;100.22;11.85;;;;;;;;;;4952017;28;20035;-45
2023/03/10 01:42:23;;;;;;;34.90;7.22;;;;;;;;;;4953077;28;20039;-47
2023/03/10 01:45:03;;;;;;;32.65;7.07;;;;;;;;;;4953571;28;20031;-48
2023/03/10 01:47:29;;;;;;;77.45;10.82;;;;;;;;;;4956472;28;20142;-47
2023/03/10 01:49:56;;;;;;;45.90;8.45;;;;;;;;;;4951805;29;20147;-46
2023/03/10 01:52:24;;;;;;;53.95;9.13;;;;;;;;;;4952334;29;20039;-48
2023/03/10 01:54:51;;;;;;;52.95;9.00;;;;;;;;;;4950783;29;20047;-48
2023/03/10 01:57:21;;;;;;;22.95;6.30;;;;;;;;;;4951498;28;20619;-47
2023/03/10 01:59:47;;;;;;;56.60;9.68;;;;;;;;;;4951048;28;20075;-47
2023/03/10 02:02:14;;;;;;;95.95;11.98;;;;;;;;;;4951668;29;20613;-55
2023/03/10 02:04:43;;;;;;;40.25;9.05;;;;;;;;;;4932261;29;20039;-57
2023/03/10 02:07:10;;;;;;;38.63;8.55;;;;;;;;;;4952508;28;20098;-52
2023/03/10 02:09:39;;;;;;;58.35;10.13;;;;;;;;;;4950609;28;20455;-57
2023/03/10 02:12:06;;;;;;;50.25;9.43;;;;;;;;;;4950721;29;20047;-54
2023/03/10 02:14:34;;;;;;;51.53;9.73;;;;;;;;;;4952796;28;20615;-55
2023/03/10 02:17:07;;;;;;;42.50;8.73;;;;;;;;;;4951157;29;20106;-55
2023/03/10 02:19:46;;;;;;;31.08;7.90;;;;;;;;;;4952741;28;20734;-58
2023/03/10 02:22:14;;;;;;;61.85;10.18;;;;;;;;;;4949381;29;20599;-58
2023/03/10 02:25:04;;;;;;;32.88;8.85;;;;;;;;;;4950691;28;20074;-53
2023/03/10 02:27:34;;;;;;;71.18;11.43;;;;;;;;;;4948721;29;20156;-57
2023/03/10 02:30:00;;;;;;;63.97;11.25;;;;;;;;;;4948920;29;20094;-56
2023/03/10 02:32:36;;;;;;;78.28;12.45;;;;;;;;;;4949754;29;20039;-55
2023/03/10 02:35:04;;;;;;;30.52;8.75;;;;;;;;;;4949744;29;20089;-55
2023/03/10 02:37:34;;;;;;;34.55;9.38;;;;;;;;;;4933164;29;20043;-58
2023/03/10 02:40:04;;;;;;;90.72;13.07;;;;;;;;;;4932156;29;20090;-55
2023/03/10 02:42:32;;;;;;;73.55;11.18;;;;;;;;;;4948773;28;20039;-54
2023/03/10 02:44:59;;;;;;;47.53;9.98;;;;;;;;;;4949084;29;20135;-55
2023/03/10 02:47:26;;;;;;;78.97;12.60;;;;;;;;;;4932804;29;20077;-55
2023/03/10 02:49:52;;;;;;;40.03;10.77;;;;;;;;;;4949777;29;20576;-56
2023/03/10 02:52:33;;;;;;;45.60;10.27;;;;;;;;;;4932703;29;20054;-56
2023/03/10 02:54:59;;;;;;;45.53;9.93;;;;;;;;;;4948769;29;20050;-54
2023/03/10 02:57:26;;;;;;;41.85;9.48;;;;;;;;;;4948878;29;20059;-58
2023/03/10 02:59:53;;;;;;;82.10;13.63;;;;;;;;;;4932116;29;20130;-59
2023/03/10 03:02:19;;;;;;;26.65;9.18;;;;;;;;;;4950401;29;20538;-55
2023/03/10 03:04:46;;;;;;;57.08;12.23;;;;;;;;;;4948969;29;20059;-54
2023/03/10 03:07:12;;;;;;;55.88;10.63;;;;;;;;;;4950075;28;20062;-54
2023/03/10 03:09:39;;;;;;;31.00;10.18;;;;;;;;;;4951154;28;20051;-54
2023/03/10 03:12:05;;;;;;;54.50;11.02;;;;;;;;;;4949943;29;20047;-58
2023/03/10 03:14:32;;;;;;;60.25;12.05;;;;;;;;;;4948647;29;20062;-56
2023/03/10 03:16:59;;;;;;;96.93;14.27;;;;;;;;;;4949752;29;20058;-46
2023/03/10 03:19:26;;;;;;;60.65;12.18;;;;;;;;;;4962039;28;20071;-47
2023/03/10 03:21:55;;;;;;;68.97;13.35;;;;;;;;;;4948799;29;20043;-48
2023/03/10 03:24:22;;;;;;;45.33;11.43;;;;;;;;;;4949250;28;20044;-47
2023/03/10 03:26:49;;;;;;;55.42;12.05;;;;;;;;;;4950651;28;20052;-47
2023/03/10 03:29:19;;;;;;;59.78;11.82;;;;;;;;;;4950503;29;20055;-48
2023/03/10 03:31:45;;;;;;;36.85;10.45;;;;;;;;;;4949044;29;20542;-47
2023/03/10 03:34:19;;;;;;;39.28;9.88;;;;;;;;;;4946247;29;20520;-49
2023/03/10 03:36:47;;;;;;;116.28;16.08;;;;;;;;;;4946790;29;20047;-47
2023/03/10 03:39:18;;;;;;;65.68;11.60;;;;;;;;;;4959389;28;20069;-48
2023/03/10 03:41:52;;;;;;;71.25;14.10;;;;;;;;;;4948784;29;20051;-49
2023/03/10 03:44:19;;;;;;;43.15;10.48;;;;;;;;;;4949969;29;20581;-47
2023/03/10 03:46:47;;;;;;;52.78;12.00;;;;;;;;;;4948543;29;20520;-47
2023/03/10 03:49:14;;;;;;;56.80;13.15;;;;;;;;;;4956987;28;20039;-47
2023/03/10 03:51:41;;;;;;;52.35;12.00;;;;;;;;;;4949128;29;20776;-46
2023/03/10 03:54:08;;;;;;;50.65;11.43;;;;;;;;;;4948483;28;20408;-49
2023/03/10 03:56:37;;;;;;;85.65;14.60;;;;;;;;;;4948214;29;20055;-48
2023/03/10 03:59:04;;;;;;;59.80;13.02;;;;;;;;;;4948620;28;20114;-48
2023/03/10 04:01:31;;;;;;;45.92;11.45;;;;;;;;;;4948773;28;20055;-48
2023/03/10 04:03:58;;;;;;;71.13;13.55;;;;;;;;;;4948508;28;20108;-48
2023/03/10 04:06:25;;;;;;;63.45;13.20;;;;;;;;;;4957277;28;20070;-47
2023/03/10 04:08:52;;;;;;;46.08;11.63;;;;;;;;;;4947367;28;20039;-48
2023/03/10 04:11:21;;;;;;;56.30;13.25;;;;;;;;;;4945943;29;20547;-47
2023/03/10 04:13:49;;;;;;;50.85;13.48;;;;;;;;;;4949897;29;20070;-47
2023/03/10 04:16:16;;;;;;;46.70;12.18;;;;;;;;;;4945603;29;20051;-46
2023/03/10 04:18:43;;;;;;;59.13;12.90;;;;;;;;;;4946934;28;20075;-48
2023/03/10 04:21:12;;;;;;;94.05;15.45;;;;;;;;;;4946794;28;20043;-57
2023/03/10 04:23:41;;;;;;;59.78;13.25;;;;;;;;;;4945655;28;20051;-52
2023/03/10 04:26:09;;;;;;;82.57;15.20;;;;;;;;;;4956794;28;20050;-57
2023/03/10 04:28:37;;;;;;;48.20;12.38;;;;;;;;;;4956783;28;20043;-56
2023/03/10 04:31:11;;;;;;;60.60;13.52;;;;;;;;;;4949018;29;20035;-54
2023/03/10 04:33:38;;;;;;;76.35;14.48;;;;;;;;;;4959287;28;20697;-54
2023/03/10 04:36:05;;;;;;;63.13;13.10;;;;;;;;;;4949083;29;20046;-54
2023/03/10 04:38:32;;;;;;;77.57;13.95;;;;;;;;;;4955523;28;20051;-56
2023/03/10 04:41:00;;;;;;;69.28;14.38;;;;;;;;;;4948652;29;20791;-52
2023/03/10 04:43:31;;;;;;;48.10;11.70;;;;;;;;;;4950012;28;20035;-56
2023/03/10 04:45:58;;;;;;;66.85;13.82;;;;;;;;;;4948337;28;20071;-57
2023/03/10 04:48:25;;;;;;;61.53;13.30;;;;;;;;;;4957245;28;20074;-56
2023/03/10 04:50:55;;;;;;;41.42;11.88;;;;;;;;;;4950362;28;20043;-53
2023/03/10 04:53:23;;;;;;;46.90;12.35;;;;;;;;;;4949046;29;20501;-55
2023/03/10 04:55:50;;;;;;;53.30;13.07;;;;;;;;;;4945098;29;20044;-57
2023/03/10 04:58:18;;;;;;;55.40;13.02;;;;;;;;;;4948515;28;20039;-54
2023/03/10 05:00:45;;;;;;;47.97;12.65;;;;;;;;;;4949992;28;20146;-53
2023/03/10 05:03:29;;;;;;;47.17;13.07;;;;;;;;;;4947505;29;20568;-52
2023/03/10 05:05:55;;;;;;;62.50;14.73;;;;;;;;;;4956389;28;20047;-55
2023/03/10 05:08:22;;;;;;;104.88;17.55;;;;;;;;;;4948499;29;20147;-57
2023/03/10 05:10:49;;;;;;;54.10;15.32;;;;;;;;;;4950825;28;20050;-54
2023/03/10 05:13:17;;;;;;;43.25;14.25;;;;;;;;;;4951071;29;20128;-53
2023/03/10 05:15:43;;;;;;;84.22;16.45;;;;;;;;;;4961889;28;20129;-54
2023/03/10 05:18:10;;;;;;;69.38;16.42;;;;;;;;;;4950599;28;20039;-52
2023/03/10 05:20:38;;;;;;;73.50;17.20;;;;;;;;;;4951340;29;20043;-46
2023/03/10 05:23:04;;;;;;;80.75;15.23;;;;;;;;;;4945032;28;20669;-48
2023/03/10 05:25:31;;;;;;;50.55;14.93;;;;;;;;;;4951033;28;20047;-47
2023/03/10 05:27:58;;;;;;;88.95;17.75;;;;;;;;;;4951389;28;20054;-46
2023/03/10 05:30:24;;;;;;;63.53;15.65;;;;;;;;;;4959743;28;20039;-47
2023/03/10 05:32:53;;;;;;;64.53;14.85;;;;;;;;;;4960261;28;20042;-46
2023/03/10 05:35:20;;;;;;;41.85;14.27;;;;;;;;;;4952365;29;20035;-47
2023/03/10 05:37:46;;;;;;;76.80;16.83;;;;;;;;;;4955764;28;20055;-47
2023/03/10 05:40:14;;;;;;;60.20;15.85;;;;;;;;;;4950769;28;20047;-47
2023/03/10 05:42:44;;;;;;;48.90;14.38;;;;;;;;;;4951807;28;20058;-45
2023/03/10 05:45:11;;;;;;;79.47;16.98;;;;;;;;;;4950714;28;20047;-46
2023/03/10 05:47:37;;;;;;;71.43;16.77;;;;;;;;;;4950777;29;20059;-49
2023/03/10 05:50:05;;;;;;;73.78;15.75;;;;;;;;;;4951895;29;20036;-46
2023/03/10 05:52:35;;;;;;;71.20;16.52;;;;;;;;;;4947524;29;20043;-47
2023/03/10 05:55:02;;;;;;;47.85;13.80;;;;;;;;;;4964060;28;20045;-49
2023/03/10 05:57:28;;;;;;;49.33;13.10;;;;;;;;;;4952198;28;20484;-48
2023/03/10 05:59:55;;;;;;;137.13;20.50;;;;;;;;;;4959006;28;20456;-48
2023/03/10 06:02:21;;;;;;;56.75;14.27;;;;;;;;;;4951418;29;20544;-48
2023/03/10 06:04:48;;;;;;;81.32;16.80;;;;;;;;;;4951111;29;20054;-49
2023/03/10 06:07:14;;;;;;;77.57;16.08;;;;;;;;;;4950707;28;20040;-47
2023/03/10 06:09:41;;;;;;;72.78;15.68;;;;;;;;;;4950259;28;20046;-45
2023/03/10 06:12:07;;;;;;;69.85;15.27;;;;;;;;;;4951563;28;20047;-51
2023/03/10 06:14:34;;;;;;;76.70;16.05;;;;;;;;;;4952004;28;20040;-50
2023/03/10 06:17:00;;;;;;;50.53;13.45;;;;;;;;;;4945860;29;20520;-46
2023/03/10 06:19:27;;;;;;;56.80;15.05;;;;;;;;;;4951680;28;20548;-48
2023/03/10 06:21:53;;;;;;;81.60;15.55;;;;;;;;;;4950959;28;20131;-53
2023/03/10 06:24:20;;;;;;;56.83;14.98;;;;;;;;;;4947278;28;20441;-56
2023/03/10 06:26:46;;;;;;;74.10;16.58;;;;;;;;;;4951542;28;20039;-55
2023/03/10 06:29:13;;;;;;;57.05;14.73;;;;;;;;;;4951758;29;20039;-53
2023/03/10 06:31:39;;;;;;;53.42;14.13;;;;;;;;;;4950199;29;20078;-56
2023/03/10 06:34:06;;;;;;;57.30;14.90;;;;;;;;;;4951559;28;20047;-58
2023/03/10 06:36:33;;;;;;;66.38;14.25;;;;;;;;;;4953103;28;20049;-58
2023/03/10 06:38:59;;;;;;;56.15;14.73;;;;;;;;;;4951627;28;20055;-54
2023/03/10 06:41:26;;;;;;;50.35;14.07;;;;;;;;;;4952436;28;20054;-54
2023/03/10 06:43:53;;;;;;;65.28;15.27;;;;;;;;;;4951296;28;20067;-54
2023/03/10 06:46:19;;;;;;;47.28;14.25;;;;;;;;;;4951172;28;20694;-56
2023/03/10 06:48:46;;;;;;;60.35;15.27;;;;;;;;;;4951123;28;20074;-57
2023/03/10 06:51:14;;;;;;;75.22;17.48;;;;;;;;;;4951103;28;20044;-55
2023/03/10 06:53:41;;;;;;;59.20;15.85;;;;;;;;;;4951214;29;20067;-56
2023/03/10 06:56:12;;;;;;;55.20;17.25;;;;;;;;;;4951967;28;20696;-54
2023/03/10 06:58:39;;;;;;;73.15;16.38;;;;;;;;;;4950801;28;20039;-55
2023/03/10 07:01:06;;;;;;;66.03;16.13;;;;;;;;;;4951442;28;20040;-53
2023/03/10 07:03:33;;;;;;;67.47;16.45;;;;;;;;;;4950936;28;20044;-58
2023/03/10 07:06:00;;;;;;;96.82;18.58;;;;;;;;;;4950655;28;20050;-58
2023/03/10 07:08:27;;;;;;;72.38;17.25;;;;;;;;;;4951790;28;20098;-54
2023/03/10 07:10:54;;;;;;;50.20;15.55;;;;;;;;;;4950658;28;20072;-53
2023/03/10 07:13:21;;;;;;;64.85;17.20;;;;;;;;;;4950985;28;20035;-55
2023/03/10 07:15:48;;;;;;;58.35;15.90;;;;;;;;;;4950675;28;20047;-57
2023/03/10 07:18:15;;;;;;;49.65;15.50;;;;;;;;;;4947525;28;20382;-55
2023/03/10 07:20:43;;;;;;;77.18;16.35;;;;;;;;;;4950955;28;20693;-57
2023/03/10 07:23:10;;;;;;;71.80;17.92;;;;;;;;;;4951361;28;20047;-57
2023/03/10 07:25:37;;;;;;;39.90;14.18;;;;;;;;;;4950641;28;20051;-55
2023/03/10 07:28:04;;;;;;;74.15;16.25;;;;;;;;;;4950279;28;20061;-58
2023/03/10 07:30:31;;;;;;;170.40;24.17;;;;;;;;;;4948496;28;20449;-49
2023/03/10 07:32:58;;;;;;;66.35;16.75;;;;;;;;;;4949925;28;20035;-51
2023/03/10 07:35:25;;;;;;;59.85;16.67;;;;;;;;;;4951165;28;20118;-50
2023/03/10 07:37:51;;;;;;;64.75;15.70;;;;;;;;;;4950157;28;20069;-52
2023/03/10 07:40:21;;;;;;;38.17;14.60;;;;;;;;;;4950028;28;20054;-49
2023/03/10 07:42:48;;;;;;;71.05;17.75;;;;;;;;;;4950488;28;20106;-49
2023/03/10 07:45:15;;;;;;;52.67;16.38;;;;;;;;;;4948847;29;20102;-48
2023/03/10 07:47:41;;;;;;;59.45;16.00;;;;;;;;;;4949949;28;20639;-49
2023/03/10 07:50:08;;;;;;;62.70;16.08;;;;;;;;;;4950607;28;20086;-51
2023/03/10 07:52:35;;;;;;;54.50;15.52;;;;;;;;;;4950056;28;20043;-49
2023/03/10 07:55:01;;;;;;;70.60;18.02;;;;;;;;;;4948358;29;20047;-50
2023/03/10 07:57:28;;;;;;;61.05;15.88;;;;;;;;;;4950028;28;20070;-49
2023/03/10 07:59:54;;;;;;;96.55;19.30;;;;;;;;;;4950083;28;20132;-49
2023/03/10 08:02:21;;;;;;;42.30;14.98;;;;;;;;;;4950738;28;20122;-49
2023/03/10 08:04:47;;;;;;;54.75;16.23;;;;;;;;;;4949517;28;20051;-49
2023/03/10 08:07:13;;;;;;;57.85;16.40;;;;;;;;;;4949427;28;20058;-49
2023/03/10 08:09:40;;;;;;;56.38;17.33;;;;;;;;;;4948959;28;20520;-52
2023/03/10 08:12:06;;;;;;;65.40;16.98;;;;;;;;;;4949665;28;20043;-50
2023/03/10 08:14:33;;;;;;;88.50;19.20;;;;;;;;;;4950247;28;20043;-50
2023/03/10 08:16:59;;;;;;;61.03;17.90;;;;;;;;;;4949464;28;20058;-47
2023/03/10 08:19:26;;;;;;;58.67;17.92;;;;;;;;;;4949213;28;20047;-49
2023/03/10 08:21:54;;;;;;;95.75;20.33;;;;;;;;;;4959117;28;20070;-49
2023/03/10 08:24:20;;;;;;;69.55;18.65;;;;;;;;;;4949380;28;20043;-48
2023/03/10 08:26:47;;;;;;;68.25;19.10;;;;;;;;;;4949561;28;20051;-52
2023/03/10 08:29:13;;;;;;;76.05;19.75;;;;;;;;;;4949843;28;20036;-50
2023/03/10 08:31:39;;;;;;;55.47;17.77;;;;;;;;;;4950714;28;20047;-52
2023/03/10 08:34:06;;;;;;;86.60;20.17;;;;;;;;;;4947160;28;20050;-58
2023/03/10 08:36:33;;;;;;;64.60;18.83;;;;;;;;;;4945674;28;20046;-57
2023/03/10 08:38:59;;;;;;;57.53;18.17;;;;;;;;;;4949744;28;20039;-54
2023/03/10 08:41:28;;;;;;;40.30;16.48;;;;;;;;;;4950960;28;20043;-53
2023/03/10 08:43:55;;;;;;;97.47;21.98;;;;;;;;;;4949566;28;20036;-58
2023/03/10 08:46:23;;;;;;;47.28;18.70;;;;;;;;;;4951607;28;20134;-55
2023/03/10 08:48:50;;;;;;;52.78;20.40;;;;;;;;;;4930678;29;20103;-58
2023/03/10 08:51:16;;;;;;;69.65;20.45;;;;;;;;;;4930738;29;20055;-54
2023/03/10 08:53:45;;;;;;;66.85;20.65;;;;;;;;;;4931741;29;20118;-53
2023/03/10 08:56:12;;;;;;;74.28;21.73;;;;;;;;;;4934823;29;20525;-53
2023/03/10 08:58:38;;;;;;;80.38;23.35;;;;;;;;;;4934083;29;20493;-55
2023/03/10 09:01:05;;;;;;;72.55;21.27;;;;;;;;;;4934595;29;20050;-58
2023/03/10 09:03:34;;;;;;;58.10;21.27;;;;;;;;;;4934557;29;20489;-57
2023/03/10 09:06:01;;;;;;;99.88;23.55;;;;;;;;;;4933447;29;20580;-56
2023/03/10 09:08:27;;;;;;;83.88;23.30;;;;;;;;;;4935034;29;20040;-58
2023/03/10 09:10:54;;;;;;;61.22;22.75;;;;;;;;;;4933833;29;20444;-58
2023/03/10 09:13:20;;;;;;;70.78;22.73;;;;;;;;;;4932972;29;20036;-58
2023/03/10 09:15:47;;;;;;;76.43;24.77;;;;;;;;;;4934049;29;20040;-56
2023/03/10 09:18:14;;;;;;;59.75;22.83;;;;;;;;;;4933591;29;20087;-58
2023/03/10 09:20:42;;;;;;;80.43;25.33;;;;;;;;;;4934015;29;20059;-58
2023/03/10 09:23:09;;;;;;;65.72;24.08;;;;;;;;;;4934542;29;20048;-56
2023/03/10 09:25:36;;;;;;;68.10;23.02;;;;;;;;;;4933754;29;20063;-55
2023/03/10 09:28:02;;;;;;;95.15;25.98;;;;;;;;;;4933714;29;20047;-57
2023/03/10 09:30:29;;;;;;;67.10;24.88;;;;;;;;;;4933871;29;20043;-53
2023/03/10 09:32:57;;;;;;;72.70;25.45;;;;;;;;;;4936131;29;20117;-54
2023/03/10 09:35:23;;;;;;;70.93;25.17;;;;;;;;;;4931167;29;20152;-57
2023/03/10 09:37:50;;;;;;;79.45;25.85;;;;;;;;;;4933821;29;20075;-52
2023/03/10 09:40:18;;;;;;;61.30;25.15;;;;;;;;;;4933305;29;20044;-58
2023/03/10 09:42:46;;;;;;;86.13;26.90;;;;;;;;;;4933618;29;20039;-57
2023/03/10 09:45:22;;;;;;;65.80;26.10;;;;;;;;;;4933216;29;20457;-56
2023/03/10 09:47:48;;;;;;;105.40;27.70;;;;;;;;;;4942372;29;20088;-49
2023/03/10 09:50:22;;;;;;;74.40;25.42;;;;;;;;;;4951457;28;20101;-50
2023/03/10 09:53:08;;;;;;;61.97;25.08;;;;;;;;;;4952817;28;20047;-49
2023/03/10 09:55:40;;;;;;;74.53;25.80;;;;;;;;;;4948321;29;20074;-48
2023/03/10 09:58:31;;;;;;;81.38;26.95;;;;;;;;;;4947191;28;20046;-50
2023/03/10 10:00:59;;;;;;;91.15;29.42;;;;;;;;;;4952226;28;20047;-51
2023/03/10 10:03:28;;;;;;;61.88;24.95;;;;;;;;;;4952906;28;20056;-51
2023/03/10 10:05:58;;;;;;;106.55;29.42;;;;;;;;;;4951911;28;20062;-49
2023/03/10 10:08:44;;;;;;;107.05;28.88;;;;;;;;;;4952355;28;20047;-49
2023/03/10 10:11:23;;;;;;;87.90;28.40;;;;;;;;;;4951800;29;20069;-51
2023/03/10 10:13:59;;;;;;;76.72;28.15;;;;;;;;;;4950267;29;20051;-47
2023/03/10 10:16:28;;;;;;;95.80;29.42;;;;;;;;;;4948864;29;20550;-52
2023/03/10 10:19:04;;;;;;;75.50;29.23;;;;;;;;;;4951826;28;20270;-49
2023/03/10 10:21:37;;;;;;;73.70;27.23;;;;;;;;;;4952233;28;20067;-48
2023/03/10 10:24:09;;;;;;;84.45;28.05;;;;;;;;;;4948158;29;20090;-52
2023/03/10 10:26:35;;;;;;;114.45;29.83;;;;;;;;;;4949413;29;20412;-50
2023/03/10 10:29:11;;;;;;;110.72;29.65;;;;;;;;;;4949368;28;20050;-51
2023/03/10 10:31:37;;;;;;;81.97;28.10;;;;;;;;;;4952058;28;20051;-50
2023/03/10 10:34:05;;;;;;;115.97;28.92;;;;;;;;;;4950939;28;20409;-48
2023/03/10 10:36:34;;;;;;;107.05;32.28;;;;;;;;;;4951632;28;20036;-50
2023/03/10 10:39:02;;;;;;;99.25;28.15;;;;;;;;;;4951285;28;20047;-49
2023/03/10 10:41:30;;;;;;;67.88;25.65;;;;;;;;;;4952194;29;20755;-47
2023/03/10 10:43:58;;;;;;;103.10;27.67;;;;;;;;;;4951128;28;20043;-50
2023/03/10 10:46:26;;;;;;;64.45;23.95;;;;;;;;;;4951077;28;20551;-44
2023/03/10 10:49:07;;;;;;;97.53;26.85;;;;;;;;;;4950942;28;20133;-48
2023/03/10 10:51:36;;;;;;;91.32;25.95;;;;;;;;;;4948890;29;20200;-49
2023/03/10 10:54:16;;;;;;;101.25;27.42;;;;;;;;;;4950968;28;20039;-56
2023/03/10 10:56:51;;;;;;;77.93;25.20;;;;;;;;;;4949756;28;20082;-57
2023/03/10 10:59:18;;;;;;;70.35;25.73;;;;;;;;;;4952026;28;20097;-58
2023/03/10 11:01:45;;;;;;;76.93;24.15;;;;;;;;;;4950930;28;20051;-56
2023/03/10 11:04:11;;;;;;;71.35;25.10;;;;;;;;;;4951026;28;20047;-57
2023/03/10 11:06:38;;;;;;;63.65;24.58;;;;;;;;;;4951475;28;20051;-58
2023/03/10 11:09:10;;;;;;;88.10;24.83;;;;;;;;;;4950062;28;20043;-54
2023/03/10 11:11:57;;;;;;;69.10;23.60;;;;;;;;;;4951421;28;20054;-57
2023/03/10 11:14:31;;;;;;;81.30;25.65;;;;;;;;;;4950474;29;20047;-57
2023/03/10 11:17:21;;;;;;;70.03;24.90;;;;;;;;;;4948527;29;20047;-58
2023/03/10 11:19:51;;;;;;;60.15;24.27;;;;;;;;;;4948949;29;20046;-57
2023/03/10 11:22:26;;;;;;;75.28;24.75;;;;;;;;;;4950986;28;20043;-58
2023/03/10 11:25:00;;;;;;;87.70;23.38;;;;;;;;;;4950309;28;20043;-57
2023/03/10 11:27:26;;;;;;;;;;;;;;;;;;4951214;28;20550;-58
2023/03/10 11:29:58;;;;;;;73.45;21.65;;;;;;;;;;4950545;29;20540;-57
2023/03/10 11:32:43;;;;;;;57.90;21.25;;;;;;;;;;4951113;29;20122;-58
2023/03/10 11:35:15;;;;;;;60.95;21.10;;;;;;;;;;4950424;28;20051;-57
2023/03/10 11:37:45;;;;;;;51.47;21.05;;;;;;;;;;4955560;28;20560;-56
2023/03/10 11:40:33;;;;;;;79.80;23.17;;;;;;;;;;4949971;28;20039;-53
2023/03/10 11:43:02;;;;;;;95.30;25.35;;;;;;;;;;4948701;29;20051;-56
2023/03/10 11:45:35;;;;;;;82.55;22.70;;;;;;;;;;4950694;28;20043;-54
2023/03/10 11:48:01;;;;;;;87.33;21.47;;;;;;;;;;4950018;28;20059;-58
2023/03/10 11:50:33;;;;;;;64.10;21.35;;;;;;;;;;4951449;28;20646;-58
2023/03/10 11:53:09;;;;;;;62.05;21.38;;;;;;;;;;4949764;29;20083;-56
2023/03/10 11:55:36;;;;;;;69.35;21.33;;;;;;;;;;4949726;28;20575;-49
2023/03/10 11:58:03;;;;;;;78.20;21.15;;;;;;;;;;4947588;28;20042;-51
2023/03/10 12:00:33;;;;;;;76.63;20.70;;;;;;;;;;4950054;28;20039;-48
2023/03/10 12:03:18;;;;;;;66.22;18.38;;;;;;;;;;4949327;29;20059;-52
2023/03/10 12:05:47;;;;;;;98.72;21.48;;;;;;;;;;4949833;28;20054;-53
2023/03/10 12:08:15;;;;;;;58.50;17.45;;;;;;;;;;4949862;29;20098;-49
2023/03/10 12:10:42;;;;;;;71.25;19.02;;;;;;;;;;4949334;28;20051;-49
2023/03/10 12:13:16;;;;;;;74.82;20.30;;;;;;;;;;4950464;28;20049;-49
2023/03/10 12:15:43;;;;;;;50.58;16.83;;;;;;;;;;4949684;28;20073;-50
2023/03/10 12:18:10;;;;;;;61.30;17.38;;;;;;;;;;4947362;28;20485;-48
2023/03/10 12:20:36;;;;;;;81.60;17.77;;;;;;;;;;4948561;29;20053;-49
2023/03/10 12:23:09;;;;;;;54.63;15.77;;;;;;;;;;4949445;28;20501;-51
2023/03/10 12:25:37;;;;;;;59.28;16.55;;;;;;;;;;4949365;28;20055;-50
2023/03/10 12:28:15;;;;;;;88.95;18.02;;;;;;;;;;4949325;28;20062;-49
2023/03/10 12:30:47;;;;;;;90.57;17.90;;;;;;;;;;4946866;29;20126;-48
2023/03/10 12:33:29;;;;;;;65.97;16.90;;;;;;;;;;4947951;29;20051;-51
2023/03/10 12:36:01;;;;;;;105.70;18.75;;;;;;;;;;4949553;28;20043;-49
2023/03/10 12:38:36;;;;;;;95.30;18.25;;;;;;;;;;4948429;29;20559;-48
2023/03/10 12:41:02;;;;;;;66.05;15.70;;;;;;;;;;4949522;28;20118;-49
2023/03/10 12:43:42;;;;;;;48.17;13.90;;;;;;;;;;4949215;28;20491;-51
2023/03/10 12:46:14;;;;;;;68.60;16.60;;;;;;;;;;4948916;28;20047;-48
2023/03/10 12:48:46;;;;;;;55.38;14.73;;;;;;;;;;4945898;29;20496;-48
2023/03/10 12:51:15;;;;;;;81.80;16.95;;;;;;;;;;4961337;28;20061;-47
2023/03/10 12:53:48;;;;;;;90.38;17.42;;;;;;;;;;4949398;28;20134;-52
2023/03/10 12:56:14;;;;;;;82.07;17.42;;;;;;;;;;4948909;29;20131;-51
2023/03/10 12:59:13;;;;;;;81.15;16.60;;;;;;;;;;4949271;28;20415;-51
2023/03/10 13:01:42;;;;;;;70.30;15.70;;;;;;;;;;4927454;29;20052;-53
2023/03/10 13:04:21;;;;;;;40.33;14.00;;;;;;;;;;4924644;29;20413;-54
2023/03/10 13:06:48;;;;;;;62.28;14.43;;;;;;;;;;4927243;29;20048;-57
2023/03/10 13:09:31;;;;;;;67.70;14.50;;;;;;;;;;4927469;29;20044;-57
2023/03/10 13:11:58;;;;;;;109.38;17.63;;;;;;;;;;4927780;29;20059;-56
2023/03/10 13:14:40;;;;;;;44.22;13.65;;;;;;;;;;4928976;29;20461;-58
2023/03/10 13:17:18;;;;;;;49.17;12.63;;;;;;;;;;4928065;29;20155;-54
2023/03/10 13:19:54;;;;;;;40.25;12.07;;;;;;;;;;4927428;29;20151;-54
2023/03/10 13:22:21;;;;;;;37.47;12.43;;;;;;;;;;4923793;29;20047;-57
2023/03/10 13:24:55;;;;;;;73.47;15.23;;;;;;;;;;4926892;29;20051;-57
2023/03/10 13:27:25;;;;;;;50.40;13.57;;;;;;;;;;4910762;29;20076;-54
2023/03/10 13:29:54;;;;;;;90.35;15.82;;;;;;;;;;4927312;29;20131;-58
2023/03/10 13:32:21;;;;;;;56.90;13.48;;;;;;;;;;4930187;29;20056;-58
2023/03/10 13:34:48;;;;;;;43.83;12.50;;;;;;;;;;4931148;29;20047;-57
2023/03/10 13:37:14;;;;;;;55.78;13.02;;;;;;;;;;4940130;29;20043;-55
2023/03/10 13:39:41;;;;;;;56.45;12.30;;;;;;;;;;4952197;28;20063;-58
2023/03/10 13:42:36;;;;;;;55.55;12.85;;;;;;;;;;4952679;28;20043;-57
2023/03/10 13:45:19;;;;;;;60.47;12.63;;;;;;;;;;4949464;28;20058;-56
2023/03/10 13:47:46;;;;;;;97.22;16.65;;;;;;;;;;4949172;29;20121;-58
2023/03/10 13:50:13;;;;;;;45.53;12.18;;;;;;;;;;4951914;29;20078;-57
2023/03/10 13:52:50;;;;;;;58.47;13.77;;;;;;;;;;4952235;28;20050;-57
2023/03/10 13:55:16;;;;;;;65.80;13.15;;;;;;;;;;4952144;28;20039;-55
2023/03/10 13:57:44;;;;;;;50.13;12.45;;;;;;;;;;4952527;28;20625;-58
2023/03/10 14:00:13;;;;;;;51.30;14.75;;;;;;;;;;4950398;29;20075;-53
2023/03/10 14:02:40;;;;;;;68.45;16.75;;;;;;;;;;4949102;28;20043;-47
2023/03/10 14:05:07;;;;;;;72.10;16.75;;;;;;;;;;4951828;29;20043;-47
2023/03/10 14:07:35;;;;;;;76.47;15.40;;;;;;;;;;4952070;28;20035;-51
2023/03/10 14:10:08;;;;;;;89.30;15.45;;;;;;;;;;4951123;28;20043;-49
2023/03/10 14:12:42;;;;;;;86.95;14.77;;;;;;;;;;4952107;28;20045;-50
2023/03/10 14:15:17;;;;;;;74.38;13.35;;;;;;;;;;4951935;29;20085;-48
2023/03/10 14:18:02;;;;;;;47.78;10.57;;;;;;;;;;4946279;29;20118;-49
2023/03/10 14:20:30;;;;;;;70.45;11.48;;;;;;;;;;4950867;29;20052;-50
2023/03/10 14:22:56;;;;;;;50.13;9.00;;;;;;;;;;4951678;28;20062;-52
2023/03/10 14:25:23;;;;;;;74.45;11.15;;;;;;;;;;4955069;28;20049;-52
2023/03/10 14:28:11;;;;;;;61.30;10.32;;;;;;;;;;4951758;28;20054;-52
2023/03/10 14:30:39;;;;;;;53.40;9.15;;;;;;;;;;4951340;28;20079;-48